createdAt,value
2019-03-25T00:30:12.113Z,0.5
2019-03-25T01:15:12.251Z,0.43
2019-03-25T01:45:12.331Z,0.45
2019-03-25T02:00:12.347Z,0.46
2019-03-25T02:15:12.404Z,0.46
2019-03-25T02:30:12.478Z,0.54
2019-03-25T02:45:12.478Z,0.55
2019-03-25T03:00:12.515Z,0.54
2019-03-25T03:30:02.608Z,0.41
2019-03-25T03:45:12.697Z,0.4
2019-03-25T04:00:12.677Z,0.38
2019-03-25T04:15:12.727Z,0.46
2019-03-25T04:30:12.769Z,0.37
2019-03-25T04:45:02.789Z,0.36
2019-03-25T05:00:12.878Z,0.52
2019-03-25T05:15:02.890Z,0.45
2019-03-25T05:30:02.986Z,0.53
2019-03-25T05:45:02.951Z,0.56
2019-03-25T06:00:02.991Z,0.71
2019-03-25T06:15:03.026Z,0.5
2019-03-25T06:30:03.078Z,0.62
2019-03-25T06:45:03.115Z,0.73
2019-03-25T07:00:03.161Z,0.6
2019-03-25T07:15:03.180Z,0.59
2019-03-25T07:30:03.226Z,0.62
2019-03-25T07:45:03.267Z,0.64
2019-03-25T08:00:13.040Z,0.55
2019-03-25T08:15:03.613Z,0.57
2019-03-25T08:30:03.397Z,0.54
2019-03-25T08:45:03.434Z,0.57
2019-03-25T09:00:03.461Z,0.53
2019-03-25T09:15:03.512Z,0.55
2019-03-25T09:30:03.793Z,0.88
2019-03-25T09:45:03.593Z,0.78
2019-03-25T10:00:03.619Z,0.76
2019-03-25T10:15:03.713Z,0.73
2019-03-25T10:30:03.798Z,0.61
2019-03-25T10:45:03.735Z,0.58
2019-03-25T11:00:03.787Z,0.64
2019-03-25T11:15:03.859Z,0.62
2019-03-25T11:30:05.597Z,0.68
2019-03-25T11:45:03.905Z,0.67
2019-03-25T12:00:03.948Z,0.67
2019-03-25T12:15:04.019Z,0.7
2019-03-25T12:30:04.020Z,0.59
2019-03-25T12:45:04.048Z,0.6
2019-03-25T13:00:04.140Z,0.53
2019-03-25T13:15:04.178Z,0.49
2019-03-25T13:30:04.191Z,0.68
2019-03-25T13:45:04.214Z,0.74
2019-03-25T14:00:06.574Z,0.77
2019-03-25T14:15:07.982Z,0.76
2019-03-25T14:30:14.203Z,0.82
2019-03-25T14:45:08.058Z,0.74
2019-03-25T15:00:08.096Z,0.99
2019-03-25T15:15:08.123Z,0.86
2019-03-25T15:30:08.157Z,0.92
2019-03-25T15:45:08.257Z,0.62
2019-03-25T16:00:08.242Z,0.58
2019-03-25T16:15:08.330Z,0.63
2019-03-25T16:30:08.334Z,0.51
2019-03-25T16:45:08.400Z,0.54
2019-03-25T17:00:08.424Z,0.56
2019-03-25T17:15:08.469Z,0.58
2019-03-25T17:30:08.495Z,0.53
2019-03-25T17:45:08.510Z,0.57
2019-03-25T18:00:08.547Z,0.59
2019-03-25T18:15:08.670Z,0.55
2019-03-25T18:30:08.671Z,0.46
2019-03-25T18:45:08.718Z,0.39
2019-03-25T19:00:08.740Z,0.46
2019-03-25T19:15:08.835Z,0.38
2019-03-25T19:30:09.551Z,0.38
2019-03-25T19:45:09.589Z,0.42
2019-03-25T20:00:09.663Z,0.49
2019-03-25T20:15:09.658Z,0.43
2019-03-25T20:30:09.693Z,0.4
2019-03-25T20:45:09.804Z,0.47
2019-03-25T21:00:09.778Z,0.44
2019-03-25T21:15:09.826Z,0.37
2019-03-25T21:30:09.868Z,0.52
2019-03-25T21:45:09.895Z,0.4
2019-03-25T22:00:09.925Z,0.36
2019-03-25T22:15:10.005Z,0.41
2019-03-25T22:30:10.005Z,0.36
2019-03-25T22:45:10.040Z,0.42
2019-03-25T23:00:10.101Z,0.35
2019-03-25T23:15:10.119Z,0.36
2019-03-25T23:30:10.152Z,0.36
2019-03-25T23:45:10.204Z,0.38
